sensor_id;sensor_type;location;lat;lon;timestamp;temperature;humidity
16404;DHT22;8311;50.158;8.642;2023-06-22T00:01:02;27.90;48.70
16404;DHT22;8311;50.158;8.642;2023-06-22T00:03:56;27.90;48.50
16404;DHT22;8311;50.158;8.642;2023-06-22T00:06:49;27.90;48.70
16404;DHT22;8311;50.158;8.642;2023-06-22T00:09:43;27.90;48.60
16404;DHT22;8311;50.158;8.642;2023-06-22T00:12:35;27.90;48.40
16404;DHT22;8311;50.158;8.642;2023-06-22T00:15:28;27.90;48.70
16404;DHT22;8311;50.158;8.642;2023-06-22T00:18:22;27.90;48.30
16404;DHT22;8311;50.158;8.642;2023-06-22T00:21:20;27.80;48.70
16404;DHT22;8311;50.158;8.642;2023-06-22T00:24:13;27.90;48.70
16404;DHT22;8311;50.158;8.642;2023-06-22T00:27:07;27.90;48.70
16404;DHT22;8311;50.158;8.642;2023-06-22T00:30:01;27.90;48.70
16404;DHT22;8311;50.158;8.642;2023-06-22T00:32:55;27.90;48.70
16404;DHT22;8311;50.158;8.642;2023-06-22T00:35:48;27.90;48.70
16404;DHT22;8311;50.158;8.642;2023-06-22T00:38:44;27.90;48.70
16404;DHT22;8311;50.158;8.642;2023-06-22T00:41:37;27.90;48.50
16404;DHT22;8311;50.158;8.642;2023-06-22T00:44:31;27.90;48.70
16404;DHT22;8311;50.158;8.642;2023-06-22T00:47:25;27.90;48.70
16404;DHT22;8311;50.158;8.642;2023-06-22T00:50:20;27.90;48.70
16404;DHT22;8311;50.158;8.642;2023-06-22T00:53:14;27.90;48.70
16404;DHT22;8311;50.158;8.642;2023-06-22T00:56:09;27.90;48.70
16404;DHT22;8311;50.158;8.642;2023-06-22T00:59:03;27.90;48.70
16404;DHT22;8311;50.158;8.642;2023-06-22T01:01:57;27.90;48.70
16404;DHT22;8311;50.158;8.642;2023-06-22T01:04:52;27.90;48.60
16404;DHT22;8311;50.158;8.642;2023-06-22T01:07:56;27.90;48.70
16404;DHT22;8311;50.158;8.642;2023-06-22T01:10:55;27.90;48.70
16404;DHT22;8311;50.158;8.642;2023-06-22T01:13:57;27.90;48.70
16404;DHT22;8311;50.158;8.642;2023-06-22T01:16:51;27.90;48.70
16404;DHT22;8311;50.158;8.642;2023-06-22T01:19:49;27.90;48.80
16404;DHT22;8311;50.158;8.642;2023-06-22T01:22:59;27.90;48.80
16404;DHT22;8311;50.158;8.642;2023-06-22T01:26:02;27.90;48.90
16404;DHT22;8311;50.158;8.642;2023-06-22T01:29:01;27.80;48.90
16404;DHT22;8311;50.158;8.642;2023-06-22T01:31:57;27.90;49.00
16404;DHT22;8311;50.158;8.642;2023-06-22T01:34:52;27.90;49.00
16404;DHT22;8311;50.158;8.642;2023-06-22T01:37:45;27.80;48.10
16404;DHT22;8311;50.158;8.642;2023-06-22T01:40:39;27.90;48.90
16404;DHT22;8311;50.158;8.642;2023-06-22T01:43:33;27.80;48.60
16404;DHT22;8311;50.158;8.642;2023-06-22T01:46:29;27.90;49.00
16404;DHT22;8311;50.158;8.642;2023-06-22T01:49:22;27.80;48.90
16404;DHT22;8311;50.158;8.642;2023-06-22T01:52:15;27.90;48.50
16404;DHT22;8311;50.158;8.642;2023-06-22T01:55:08;27.90;49.00
16404;DHT22;8311;50.158;8.642;2023-06-22T01:58:01;27.90;48.40
16404;DHT22;8311;50.158;8.642;2023-06-22T02:00:58;27.80;49.20
16404;DHT22;8311;50.158;8.642;2023-06-22T02:04:03;27.90;49.10
16404;DHT22;8311;50.158;8.642;2023-06-22T02:06:59;27.90;48.70
16404;DHT22;8311;50.158;8.642;2023-06-22T02:09:55;27.90;49.30
16404;DHT22;8311;50.158;8.642;2023-06-22T02:12:50;27.90;48.90
16404;DHT22;8311;50.158;8.642;2023-06-22T02:15:44;27.80;48.60
16404;DHT22;8311;50.158;8.642;2023-06-22T02:18:38;27.90;49.00
16404;DHT22;8311;50.158;8.642;2023-06-22T02:21:34;27.90;48.90
16404;DHT22;8311;50.158;8.642;2023-06-22T02:24:27;27.90;49.30
16404;DHT22;8311;50.158;8.642;2023-06-22T02:27:23;27.80;49.00
16404;DHT22;8311;50.158;8.642;2023-06-22T02:30:16;27.90;49.20
16404;DHT22;8311;50.158;8.642;2023-06-22T02:33:10;27.90;49.40
16404;DHT22;8311;50.158;8.642;2023-06-22T02:36:04;27.90;48.90
16404;DHT22;8311;50.158;8.642;2023-06-22T02:39:03;27.90;49.40
16404;DHT22;8311;50.158;8.642;2023-06-22T02:41:56;27.90;49.00
16404;DHT22;8311;50.158;8.642;2023-06-22T02:44:49;27.80;49.30
16404;DHT22;8311;50.158;8.642;2023-06-22T02:47:42;27.90;49.00
16404;DHT22;8311;50.158;8.642;2023-06-22T02:50:35;27.90;49.10
16404;DHT22;8311;50.158;8.642;2023-06-22T02:53:28;27.90;48.70
16404;DHT22;8311;50.158;8.642;2023-06-22T02:56:22;27.80;49.40
16404;DHT22;8311;50.158;8.642;2023-06-22T02:59:17;27.90;48.80
16404;DHT22;8311;50.158;8.642;2023-06-22T03:02:15;27.90;49.20
16404;DHT22;8311;50.158;8.642;2023-06-22T03:05:08;27.90;48.80
16404;DHT22;8311;50.158;8.642;2023-06-22T03:08:05;27.90;48.90
16404;DHT22;8311;50.158;8.642;2023-06-22T03:10:58;27.90;49.10
16404;DHT22;8311;50.158;8.642;2023-06-22T03:13:52;27.90;49.40
16404;DHT22;8311;50.158;8.642;2023-06-22T03:16:45;27.90;49.30
16404;DHT22;8311;50.158;8.642;2023-06-22T03:19:38;27.90;49.60
16404;DHT22;8311;50.158;8.642;2023-06-22T03:22:31;27.90;49.20
16404;DHT22;8311;50.158;8.642;2023-06-22T03:25:24;27.90;49.00
16404;DHT22;8311;50.158;8.642;2023-06-22T03:28:17;27.90;48.80
16404;DHT22;8311;50.158;8.642;2023-06-22T03:31:11;27.90;48.90
16404;DHT22;8311;50.158;8.642;2023-06-22T03:34:05;27.80;48.80
16404;DHT22;8311;50.158;8.642;2023-06-22T03:36:58;27.80;48.80
16404;DHT22;8311;50.158;8.642;2023-06-22T03:39:51;27.80;49.30
16404;DHT22;8311;50.158;8.642;2023-06-22T03:42:44;27.90;49.70
16404;DHT22;8311;50.158;8.642;2023-06-22T03:45:37;27.80;49.10
16404;DHT22;8311;50.158;8.642;2023-06-22T03:48:33;27.90;49.00
16404;DHT22;8311;50.158;8.642;2023-06-22T03:51:27;27.80;49.30
16404;DHT22;8311;50.158;8.642;2023-06-22T03:54:20;27.90;48.90
16404;DHT22;8311;50.158;8.642;2023-06-22T03:57:13;27.80;48.70
16404;DHT22;8311;50.158;8.642;2023-06-22T04:00:07;27.90;49.30
16404;DHT22;8311;50.158;8.642;2023-06-22T04:03:02;27.90;49.00
16404;DHT22;8311;50.158;8.642;2023-06-22T04:05:57;27.80;49.10
16404;DHT22;8311;50.158;8.642;2023-06-22T04:08:51;27.90;49.20
16404;DHT22;8311;50.158;8.642;2023-06-22T04:11:44;27.90;49.50
16404;DHT22;8311;50.158;8.642;2023-06-22T04:14:37;27.80;49.40
16404;DHT22;8311;50.158;8.642;2023-06-22T04:17:30;27.90;49.30
16404;DHT22;8311;50.158;8.642;2023-06-22T04:20:23;27.90;48.90
16404;DHT22;8311;50.158;8.642;2023-06-22T04:23:22;27.80;49.30
16404;DHT22;8311;50.158;8.642;2023-06-22T04:26:15;27.80;49.00
16404;DHT22;8311;50.158;8.642;2023-06-22T04:29:08;27.90;49.00
16404;DHT22;8311;50.158;8.642;2023-06-22T04:32:01;27.90;48.70
16404;DHT22;8311;50.158;8.642;2023-06-22T04:34:57;27.80;49.60
16404;DHT22;8311;50.158;8.642;2023-06-22T04:37:53;27.80;49.30
16404;DHT22;8311;50.158;8.642;2023-06-22T04:40:48;27.80;49.20
16404;DHT22;8311;50.158;8.642;2023-06-22T04:43:42;27.80;49.40
16404;DHT22;8311;50.158;8.642;2023-06-22T04:46:35;27.80;49.40
16404;DHT22;8311;50.158;8.642;2023-06-22T04:49:30;27.90;49.40
16404;DHT22;8311;50.158;8.642;2023-06-22T04:52:26;27.80;49.60
16404;DHT22;8311;50.158;8.642;2023-06-22T04:55:19;27.80;49.00
16404;DHT22;8311;50.158;8.642;2023-06-22T04:58:14;27.90;49.00
16404;DHT22;8311;50.158;8.642;2023-06-22T05:01:07;27.80;48.90
16404;DHT22;8311;50.158;8.642;2023-06-22T05:04:00;27.80;48.90
16404;DHT22;8311;50.158;8.642;2023-06-22T05:06:54;27.80;49.30
16404;DHT22;8311;50.158;8.642;2023-06-22T05:09:48;27.80;49.70
16404;DHT22;8311;50.158;8.642;2023-06-22T05:12:41;27.80;49.20
16404;DHT22;8311;50.158;8.642;2023-06-22T05:15:35;27.80;49.20
16404;DHT22;8311;50.158;8.642;2023-06-22T05:18:32;27.80;49.00
16404;DHT22;8311;50.158;8.642;2023-06-22T05:21:27;27.80;49.10
16404;DHT22;8311;50.158;8.642;2023-06-22T05:24:20;27.80;49.60
16404;DHT22;8311;50.158;8.642;2023-06-22T05:27:14;27.80;49.30
16404;DHT22;8311;50.158;8.642;2023-06-22T05:30:08;27.80;49.20
16404;DHT22;8311;50.158;8.642;2023-06-22T05:33:03;27.80;49.20
16404;DHT22;8311;50.158;8.642;2023-06-22T05:35:56;27.80;49.70
16404;DHT22;8311;50.158;8.642;2023-06-22T05:38:49;27.80;49.40
16404;DHT22;8311;50.158;8.642;2023-06-22T05:41:42;27.80;49.60
16404;DHT22;8311;50.158;8.642;2023-06-22T05:44:36;27.80;49.30
16404;DHT22;8311;50.158;8.642;2023-06-22T05:47:31;27.80;49.00
16404;DHT22;8311;50.158;8.642;2023-06-22T05:50:25;27.80;49.00
16404;DHT22;8311;50.158;8.642;2023-06-22T05:53:18;27.80;49.30
16404;DHT22;8311;50.158;8.642;2023-06-22T05:56:11;27.80;49.70
16404;DHT22;8311;50.158;8.642;2023-06-22T05:59:05;27.80;49.70
16404;DHT22;8311;50.158;8.642;2023-06-22T06:01:58;27.80;49.50
16404;DHT22;8311;50.158;8.642;2023-06-22T06:04:51;27.80;49.20
16404;DHT22;8311;50.158;8.642;2023-06-22T06:07:46;27.90;49.10
16404;DHT22;8311;50.158;8.642;2023-06-22T06:10:39;27.90;49.80
16404;DHT22;8311;50.158;8.642;2023-06-22T06:13:32;27.90;49.00
16404;DHT22;8311;50.158;8.642;2023-06-22T06:16:25;27.80;49.00
16404;DHT22;8311;50.158;8.642;2023-06-22T06:19:18;27.80;48.90
16404;DHT22;8311;50.158;8.642;2023-06-22T06:22:11;27.80;49.00
16404;DHT22;8311;50.158;8.642;2023-06-22T06:25:06;27.80;48.70
16404;DHT22;8311;50.158;8.642;2023-06-22T06:28:00;27.90;48.80
16404;DHT22;8311;50.158;8.642;2023-06-22T06:30:53;27.90;49.00
16404;DHT22;8311;50.158;8.642;2023-06-22T06:33:46;27.80;48.70
16404;DHT22;8311;50.158;8.642;2023-06-22T06:36:39;27.90;48.80
16404;DHT22;8311;50.158;8.642;2023-06-22T06:39:32;27.80;48.70
16404;DHT22;8311;50.158;8.642;2023-06-22T06:42:26;27.90;48.80
16404;DHT22;8311;50.158;8.642;2023-06-22T06:45:22;27.90;49.00
16404;DHT22;8311;50.158;8.642;2023-06-22T06:48:15;27.90;48.80
16404;DHT22;8311;50.158;8.642;2023-06-22T06:51:09;27.90;48.90
16404;DHT22;8311;50.158;8.642;2023-06-22T06:54:02;27.90;49.10
16404;DHT22;8311;50.158;8.642;2023-06-22T06:56:56;27.90;49.30
16404;DHT22;8311;50.158;8.642;2023-06-22T06:59:50;27.90;49.60
16404;DHT22;8311;50.158;8.642;2023-06-22T07:02:44;27.80;49.50
16404;DHT22;8311;50.158;8.642;2023-06-22T07:05:40;27.90;49.60
16404;DHT22;8311;50.158;8.642;2023-06-22T07:08:33;27.90;49.90
16404;DHT22;8311;50.158;8.642;2023-06-22T07:11:27;27.90;49.90
16404;DHT22;8311;50.158;8.642;2023-06-22T07:14:20;27.90;50.10
16404;DHT22;8311;50.158;8.642;2023-06-22T07:17:14;27.90;50.10
16404;DHT22;8311;50.158;8.642;2023-06-22T07:20:08;27.90;50.10
16404;DHT22;8311;50.158;8.642;2023-06-22T07:23:03;27.90;50.30
16404;DHT22;8311;50.158;8.642;2023-06-22T07:25:56;27.90;50.40
16404;DHT22;8311;50.158;8.642;2023-06-22T07:28:49;27.90;50.40
16404;DHT22;8311;50.158;8.642;2023-06-22T07:31:42;27.90;51.00
16404;DHT22;8311;50.158;8.642;2023-06-22T07:34:36;27.90;51.50
16404;DHT22;8311;50.158;8.642;2023-06-22T07:37:30;27.90;51.70
16404;DHT22;8311;50.158;8.642;2023-06-22T07:40:26;27.90;52.10
16404;DHT22;8311;50.158;8.642;2023-06-22T07:43:19;27.90;51.90
16404;DHT22;8311;50.158;8.642;2023-06-22T07:46:13;28.00;52.40
16404;DHT22;8311;50.158;8.642;2023-06-22T07:49:07;28.00;53.00
16404;DHT22;8311;50.158;8.642;2023-06-22T07:52:02;27.90;53.10
16404;DHT22;8311;50.158;8.642;2023-06-22T07:54:58;28.00;52.90
16404;DHT22;8311;50.158;8.642;2023-06-22T07:57:51;28.00;53.10
16404;DHT22;8311;50.158;8.642;2023-06-22T08:00:44;28.00;53.40
16404;DHT22;8311;50.158;8.642;2023-06-22T08:03:38;28.10;53.80
16404;DHT22;8311;50.158;8.642;2023-06-22T08:06:32;28.10;53.30
16404;DHT22;8311;50.158;8.642;2023-06-22T08:09:28;28.10;53.70
16404;DHT22;8311;50.158;8.642;2023-06-22T08:12:21;28.10;53.50
16404;DHT22;8311;50.158;8.642;2023-06-22T08:15:14;28.10;53.80
16404;DHT22;8311;50.158;8.642;2023-06-22T08:18:07;28.10;53.30
16404;DHT22;8311;50.158;8.642;2023-06-22T08:21:00;28.20;53.70
16404;DHT22;8311;50.158;8.642;2023-06-22T08:23:56;28.20;53.60
16404;DHT22;8311;50.158;8.642;2023-06-22T08:26:51;28.20;53.60
16404;DHT22;8311;50.158;8.642;2023-06-22T08:29:45;28.20;53.30
16404;DHT22;8311;50.158;8.642;2023-06-22T08:32:39;28.20;53.30
16404;DHT22;8311;50.158;8.642;2023-06-22T08:35:32;28.30;53.10
16404;DHT22;8311;50.158;8.642;2023-06-22T08:38:25;28.30;53.40
16404;DHT22;8311;50.158;8.642;2023-06-22T16:20:23;28.40;51.60
16404;DHT22;8311;50.158;8.642;2023-06-22T16:23:17;28.40;51.50
16404;DHT22;8311;50.158;8.642;2023-06-22T16:26:10;28.30;51.90
16404;DHT22;8311;50.158;8.642;2023-06-22T16:29:04;28.30;52.00
16404;DHT22;8311;50.158;8.642;2023-06-22T16:31:57;28.30;52.00
16404;DHT22;8311;50.158;8.642;2023-06-22T16:34:49;28.30;53.30
16404;DHT22;8311;50.158;8.642;2023-06-22T16:37:44;28.10;54.80
16404;DHT22;8311;50.158;8.642;2023-06-22T16:40:37;27.90;54.80
16404;DHT22;8311;50.158;8.642;2023-06-22T16:43:29;28.10;52.70
16404;DHT22;8311;50.158;8.642;2023-06-22T16:46:23;28.10;52.00
16404;DHT22;8311;50.158;8.642;2023-06-22T16:49:17;28.20;52.20
16404;DHT22;8311;50.158;8.642;2023-06-22T16:52:10;28.20;52.20
16404;DHT22;8311;50.158;8.642;2023-06-22T16:55:05;28.30;52.20
16404;DHT22;8311;50.158;8.642;2023-06-22T16:58:00;28.30;52.40
16404;DHT22;8311;50.158;8.642;2023-06-22T17:00:54;28.30;53.20
16404;DHT22;8311;50.158;8.642;2023-06-22T17:03:56;28.30;52.90
16404;DHT22;8311;50.158;8.642;2023-06-22T17:06:56;28.30;52.80
16404;DHT22;8311;50.158;8.642;2023-06-22T17:09:51;28.30;51.80
16404;DHT22;8311;50.158;8.642;2023-06-22T17:12:46;28.30;51.40
16404;DHT22;8311;50.158;8.642;2023-06-22T17:15:43;28.30;51.10
16404;DHT22;8311;50.158;8.642;2023-06-22T17:18:39;28.30;51.00
16404;DHT22;8311;50.158;8.642;2023-06-22T17:21:33;28.30;53.00
16404;DHT22;8311;50.158;8.642;2023-06-22T17:24:26;28.30;51.50
16404;DHT22;8311;50.158;8.642;2023-06-22T17:27:26;28.30;52.10
16404;DHT22;8311;50.158;8.642;2023-06-22T17:30:22;28.30;51.40
16404;DHT22;8311;50.158;8.642;2023-06-22T17:33:16;28.30;51.30
16404;DHT22;8311;50.158;8.642;2023-06-22T17:36:12;28.40;51.60
16404;DHT22;8311;50.158;8.642;2023-06-22T17:39:05;28.30;51.70
16404;DHT22;8311;50.158;8.642;2023-06-22T17:41:59;28.30;51.60
16404;DHT22;8311;50.158;8.642;2023-06-22T17:45:00;28.30;51.70
16404;DHT22;8311;50.158;8.642;2023-06-22T17:47:55;28.30;51.90
16404;DHT22;8311;50.158;8.642;2023-06-22T17:50:50;28.30;51.90
16404;DHT22;8311;50.158;8.642;2023-06-22T17:53:47;28.30;51.90
16404;DHT22;8311;50.158;8.642;2023-06-22T17:56:42;28.30;52.00
16404;DHT22;8311;50.158;8.642;2023-06-22T17:59:40;28.40;52.30
16404;DHT22;8311;50.158;8.642;2023-06-22T18:02:36;28.30;52.30
16404;DHT22;8311;50.158;8.642;2023-06-22T18:05:34;28.30;53.50
16404;DHT22;8311;50.158;8.642;2023-06-22T18:08:27;28.30;52.60
16404;DHT22;8311;50.158;8.642;2023-06-22T18:11:21;28.30;56.80
16404;DHT22;8311;50.158;8.642;2023-06-22T18:14:19;28.30;53.90
16404;DHT22;8311;50.158;8.642;2023-06-22T18:17:13;28.20;56.90
16404;DHT22;8311;50.158;8.642;2023-06-22T18:20:07;28.20;56.70
16404;DHT22;8311;50.158;8.642;2023-06-22T18:23:04;28.20;58.20
16404;DHT22;8311;50.158;8.642;2023-06-22T18:25:59;28.10;58.60
16404;DHT22;8311;50.158;8.642;2023-06-22T18:28:55;28.10;57.20
16404;DHT22;8311;50.158;8.642;2023-06-22T18:31:49;28.10;58.80
16404;DHT22;8311;50.158;8.642;2023-06-22T18:34:42;28.00;59.00
16404;DHT22;8311;50.158;8.642;2023-06-22T18:37:39;28.00;59.50
16404;DHT22;8311;50.158;8.642;2023-06-22T18:40:34;28.00;57.60
16404;DHT22;8311;50.158;8.642;2023-06-22T18:43:28;28.10;58.30
16404;DHT22;8311;50.158;8.642;2023-06-22T18:46:31;28.00;59.20
16404;DHT22;8311;50.158;8.642;2023-06-22T18:49:30;28.00;58.70
16404;DHT22;8311;50.158;8.642;2023-06-22T18:52:25;28.00;58.20
16404;DHT22;8311;50.158;8.642;2023-06-22T18:55:18;27.90;59.80
16404;DHT22;8311;50.158;8.642;2023-06-22T18:58:24;27.80;59.90
16404;DHT22;8311;50.158;8.642;2023-06-22T19:01:22;27.80;59.30
16404;DHT22;8311;50.158;8.642;2023-06-22T19:04:19;27.70;59.90
16404;DHT22;8311;50.158;8.642;2023-06-22T19:07:14;27.80;58.70
16404;DHT22;8311;50.158;8.642;2023-06-22T19:10:22;27.80;59.60
16404;DHT22;8311;50.158;8.642;2023-06-22T19:13:25;27.80;58.50
16404;DHT22;8311;50.158;8.642;2023-06-22T19:16:28;27.90;58.80
16404;DHT22;8311;50.158;8.642;2023-06-22T19:19:23;27.90;59.30
16404;DHT22;8311;50.158;8.642;2023-06-22T19:22:18;28.00;57.50
16404;DHT22;8311;50.158;8.642;2023-06-22T19:25:20;27.90;59.30
16404;DHT22;8311;50.158;8.642;2023-06-22T19:28:14;27.90;59.10
16404;DHT22;8311;50.158;8.642;2023-06-22T19:31:08;27.90;58.50
16404;DHT22;8311;50.158;8.642;2023-06-22T19:34:03;27.90;58.50
16404;DHT22;8311;50.158;8.642;2023-06-22T19:36:59;28.00;58.40
16404;DHT22;8311;50.158;8.642;2023-06-22T19:39:53;27.90;58.40
16404;DHT22;8311;50.158;8.642;2023-06-22T19:42:53;28.00;58.80
16404;DHT22;8311;50.158;8.642;2023-06-22T19:45:47;28.00;57.70
16404;DHT22;8311;50.158;8.642;2023-06-22T19:48:42;28.10;57.60
16404;DHT22;8311;50.158;8.642;2023-06-22T19:51:36;28.00;57.70
16404;DHT22;8311;50.158;8.642;2023-06-22T19:54:30;27.90;58.30
16404;DHT22;8311;50.158;8.642;2023-06-22T19:57:23;28.00;58.10
16404;DHT22;8311;50.158;8.642;2023-06-22T20:00:20;28.00;57.70
16404;DHT22;8311;50.158;8.642;2023-06-22T20:03:16;28.00;59.30
16404;DHT22;8311;50.158;8.642;2023-06-22T20:06:13;28.00;58.60
16404;DHT22;8311;50.158;8.642;2023-06-22T20:09:07;28.00;58.50
16404;DHT22;8311;50.158;8.642;2023-06-22T20:12:00;28.00;57.70
16404;DHT22;8311;50.158;8.642;2023-06-22T20:14:53;27.90;58.00
16404;DHT22;8311;50.158;8.642;2023-06-22T20:17:53;28.00;58.50
16404;DHT22;8311;50.158;8.642;2023-06-22T20:20:47;28.00;58.20
16404;DHT22;8311;50.158;8.642;2023-06-22T20:23:41;28.00;58.00
16404;DHT22;8311;50.158;8.642;2023-06-22T20:26:38;27.90;58.50
16404;DHT22;8311;50.158;8.642;2023-06-22T20:29:32;28.00;58.70
16404;DHT22;8311;50.158;8.642;2023-06-22T20:32:31;27.90;58.30
16404;DHT22;8311;50.158;8.642;2023-06-22T20:35:26;27.90;58.30
16404;DHT22;8311;50.158;8.642;2023-06-22T20:38:19;27.90;57.70
16404;DHT22;8311;50.158;8.642;2023-06-22T20:41:16;27.80;58.30
16404;DHT22;8311;50.158;8.642;2023-06-22T20:44:10;27.80;58.00
16404;DHT22;8311;50.158;8.642;2023-06-22T20:47:03;27.80;57.90
16404;DHT22;8311;50.158;8.642;2023-06-22T20:49:57;27.80;58.10
16404;DHT22;8311;50.158;8.642;2023-06-22T20:52:51;27.80;58.20
16404;DHT22;8311;50.158;8.642;2023-06-22T20:55:43;27.80;57.40
16404;DHT22;8311;50.158;8.642;2023-06-22T20:58:38;27.80;56.10
16404;DHT22;8311;50.158;8.642;2023-06-22T21:01:32;27.80;56.00
16404;DHT22;8311;50.158;8.642;2023-06-22T21:04:25;27.90;55.70
16404;DHT22;8311;50.158;8.642;2023-06-22T21:07:18;27.90;55.60
16404;DHT22;8311;50.158;8.642;2023-06-22T21:10:11;27.90;55.50
16404;DHT22;8311;50.158;8.642;2023-06-22T21:13:05;28.00;55.50
16404;DHT22;8311;50.158;8.642;2023-06-22T21:15:59;28.00;55.50
16404;DHT22;8311;50.158;8.642;2023-06-22T21:18:53;27.90;55.40
16404;DHT22;8311;50.158;8.642;2023-06-22T21:21:46;27.90;55.60
16404;DHT22;8311;50.158;8.642;2023-06-22T21:24:40;28.00;55.60
16404;DHT22;8311;50.158;8.642;2023-06-22T21:27:36;27.90;55.60
16404;DHT22;8311;50.158;8.642;2023-06-22T21:30:30;28.00;55.20
16404;DHT22;8311;50.158;8.642;2023-06-22T21:33:24;28.00;55.30
16404;DHT22;8311;50.158;8.642;2023-06-22T21:36:17;28.00;55.30
16404;DHT22;8311;50.158;8.642;2023-06-22T21:39:10;28.00;55.10
16404;DHT22;8311;50.158;8.642;2023-06-22T21:42:04;28.00;55.50
16404;DHT22;8311;50.158;8.642;2023-06-22T21:44:57;28.00;55.10
16404;DHT22;8311;50.158;8.642;2023-06-22T21:47:50;28.00;55.00
16404;DHT22;8311;50.158;8.642;2023-06-22T21:50:44;28.00;55.40
16404;DHT22;8311;50.158;8.642;2023-06-22T21:53:37;28.00;54.90
16404;DHT22;8311;50.158;8.642;2023-06-22T21:56:31;28.00;54.90
16404;DHT22;8311;50.158;8.642;2023-06-22T21:59:24;28.00;54.90
16404;DHT22;8311;50.158;8.642;2023-06-22T22:02:17;28.00;54.80
16404;DHT22;8311;50.158;8.642;2023-06-22T22:05:11;28.00;54.70
16404;DHT22;8311;50.158;8.642;2023-06-22T22:08:05;28.00;54.80
16404;DHT22;8311;50.158;8.642;2023-06-22T22:10:59;28.00;54.90
16404;DHT22;8311;50.158;8.642;2023-06-22T22:13:52;28.00;55.00
16404;DHT22;8311;50.158;8.642;2023-06-22T22:16:48;28.00;54.40
16404;DHT22;8311;50.158;8.642;2023-06-22T22:19:42;28.00;54.60
16404;DHT22;8311;50.158;8.642;2023-06-22T22:22:35;28.00;54.40
16404;DHT22;8311;50.158;8.642;2023-06-22T22:25:30;28.00;54.80
16404;DHT22;8311;50.158;8.642;2023-06-22T22:28:25;28.00;54.40
16404;DHT22;8311;50.158;8.642;2023-06-22T22:31:18;28.00;54.20
16404;DHT22;8311;50.158;8.642;2023-06-22T22:34:11;28.00;54.40
16404;DHT22;8311;50.158;8.642;2023-06-22T22:37:05;28.10;54.50
16404;DHT22;8311;50.158;8.642;2023-06-22T22:39:58;28.00;54.20
16404;DHT22;8311;50.158;8.642;2023-06-22T22:42:53;28.00;54.40
16404;DHT22;8311;50.158;8.642;2023-06-22T22:45:47;28.10;54.40
16404;DHT22;8311;50.158;8.642;2023-06-22T22:48:40;28.00;54.20
16404;DHT22;8311;50.158;8.642;2023-06-22T22:51:33;28.00;54.20
16404;DHT22;8311;50.158;8.642;2023-06-22T22:54:26;28.00;54.20
16404;DHT22;8311;50.158;8.642;2023-06-22T22:57:19;28.00;54.30
16404;DHT22;8311;50.158;8.642;2023-06-22T23:00:15;28.00;54.40
16404;DHT22;8311;50.158;8.642;2023-06-22T23:03:08;28.00;54.10
16404;DHT22;8311;50.158;8.642;2023-06-22T23:06:01;28.00;54.10
16404;DHT22;8311;50.158;8.642;2023-06-22T23:08:55;28.00;54.20
16404;DHT22;8311;50.158;8.642;2023-06-22T23:11:52;27.90;54.80
16404;DHT22;8311;50.158;8.642;2023-06-22T23:14:46;27.90;54.10
16404;DHT22;8311;50.158;8.642;2023-06-22T23:17:41;28.00;54.00
16404;DHT22;8311;50.158;8.642;2023-06-22T23:20:35;28.00;54.00
16404;DHT22;8311;50.158;8.642;2023-06-22T23:23:28;28.00;54.00
16404;DHT22;8311;50.158;8.642;2023-06-22T23:26:24;28.00;54.00
16404;DHT22;8311;50.158;8.642;2023-06-22T23:29:20;28.00;53.60
16404;DHT22;8311;50.158;8.642;2023-06-22T23:32:13;27.90;53.50
16404;DHT22;8311;50.158;8.642;2023-06-22T23:35:08;28.00;53.50
16404;DHT22;8311;50.158;8.642;2023-06-22T23:38:03;28.00;53.50
16404;DHT22;8311;50.158;8.642;2023-06-22T23:40:57;28.00;53.30
16404;DHT22;8311;50.158;8.642;2023-06-22T23:43:50;28.00;53.30
16404;DHT22;8311;50.158;8.642;2023-06-22T23:46:45;27.90;54.10
16404;DHT22;8311;50.158;8.642;2023-06-22T23:49:38;27.90;53.50
16404;DHT22;8311;50.158;8.642;2023-06-22T23:52:33;27.90;53.40
16404;DHT22;8311;50.158;8.642;2023-06-22T23:55:26;27.90;53.30
16404;DHT22;8311;50.158;8.642;2023-06-22T23:58:19;27.90;53.00
